Airfield :
LOGIN :

Register | Disclaimer

   EN    FR    IT 

 










Legend :    VFR   Marginal VFR   IFR   Intensive IFR   Very Intensive IFR
Visi :
Ceiling :
>= 8 km
>= 3000ft
5 to 8 km
1000 to 3000 ft
1500m to 5 km
500 to 1000 ft
800 to 1500m
200 to 500 ft
< 800m
< 200 ft
Symbols :   Thunderstorms  Fog  Heavy snow  Heavy precipitations  Wind > 20 kt
SIGMETs :     Misc.  Thunderstorms  Icing  Turbulence  Mountain Waves  Volcanic Ashes







- Airport Elevation : 47 ft
- IATA code : BDS


LIBR - Casale Arpt. Brindisi

CURRENT METAR :
  • 180715Z 29005KT 0600 FG SCT004 17/16 Q1020 NOSIG

EXPIRED METARs :
  • 180645Z 29006KT 0300 FG SCT003 17/16 Q1020 NOSIG
  • 180615Z 27004KT 0300 FG SCT003 17/16 Q1020 NOSIG
  • 180545Z 24002KT 0100 FG BKN001 17/16 Q1020 NOSIG
  • 180515Z 27004KT 0100 FG BKN003 17/16 Q1020 NOSIG
  • 180445Z 27004KT 0100 FG BKN005 17/16 Q1020 NOSIG

TAF TAF LIBR
Valid from the 18 at 06:00 until the 19 at 06:00 UTC


180500Z 1806/1906 30007KT 0100 FG BKN003
BECMG 1806/1807 2000 BR SCT005
BECMG 1807/1808 5000 BR SCT010
BECMG 1808/1810 9999 FEW015
BECMG 1817/1818 5000 BR NSC
PROB30
TEMPO 1822/1903 1800 BR SCT005
No reported NOTAMs for that airfield.



MET'MAP, your aeronautical weather chart ! - Copyright ORBIFLY December 2007 - Disclaimer

ORBIFLY MET'MAP TEAM :

Programming & Development : Alexandra Zaïnal
Concept & Development : Baudouin d'Aumeries
Co-Development & Prog : Marc-Olivier Méhu
Technical & hardware support : Manuel Goepfert

Contact : metmap@orbifly.com




SOURCES & CREDITS :

   NOAA